Date,TemperatureHighF,TemperatureAvgF,TemperatureLowF,DewpointHighF,DewpointAvgF,DewpointLowF,HumidityHigh,HumidityAvg,HumidityLow,PressureMaxIn,PressureMinIn,WindSpeedMaxMPH,WindSpeedAvgMPH,GustSpeedMaxMPH,PrecipitationSumIn
2013-1-1,24,18,8,19,-24,-100,94,59,80,0.00,40.00,0,-999,0,0.00
2013-1-2,26,18,6,18,-69,-100,94,25,79,0.00,40.00,0,-999,0,0.00
2013-1-3,29,11,1,13,-50,-100,90,38,50,0.00,40.00,0,-999,0,0.00
2013-1-4,25,10,0,15,-40,-100,89,46,55,0.00,40.00,0,-999,0,0.00
2013-1-5,26,13,2,14,-37,-100,91,45,56,0.00,40.00,0,-999,0,0.00
2013-1-6,28,18,8,18,-19,-100,93,59,60,0.00,40.00,0,-999,0,0.00
2013-1-7,29,19,8,27,-32,-100,97,54,89,0.00,40.00,0,-999,0,0.00
2013-1-8,40,29,21,37,-51,-100,97,34,79,0.00,40.00,0,-999,0,0.00
2013-1-9,45,40,33,38,-28,-100,93,42,67,0.00,40.00,0,-999,0,0.00
2013-1-10,40,31,27,35,-16,-100,99,59,79,0.00,40.00,0,-999,0,0.01
2013-1-11,27,23,12,25,-32,-100,96,48,68,0.00,40.00,0,-999,0,0.01
2013-1-12,24,12,3,13,-39,-100,90,44,58,0.00,40.00,0,-999,0,0.00
2013-1-13,23,7,-2,13,-19,-100,91,64,62,0.00,40.00,0,-999,0,0.00
2013-1-14,21,14,0,16,-23,-100,90,58,66,0.00,40.00,0,-999,0,0.00
2013-1-15,24,17,9,17,-27,-100,94,53,60,0.00,40.00,0,-999,0,0.00
2013-1-16,26,11,2,15,-44,-100,91,44,60,0.00,40.00,0,-999,0,0.00
2013-1-17,25,10,1,13,-45,-100,91,43,57,0.00,40.00,0,-999,0,0.00
2013-1-18,24,9,-3,13,-46,-100,90,44,70,0.00,40.00,0,-999,0,0.00
2013-1-19,28,7,-3,16,-22,-100,92,63,57,0.00,40.00,0,-999,0,0.00
2013-1-20,23,7,-3,15,-34,-100,90,52,69,0.00,40.00,0,-999,0,0.00
2013-1-21,26,9,-2,14,-32,-100,90,51,61,0.00,40.00,0,-999,0,0.00
2013-1-22,29,11,-3,16,-28,-100,90,55,56,0.00,40.00,0,-999,0,0.00
2013-1-23,28,16,1,13,-65,-100,89,30,87,0.00,40.00,0,-999,0,0.00
2013-1-24,36,32,24,-100,-100,-100,0,0,100,0.00,40.00,0,-999,0,0.00
2013-1-25,47,39,34,-100,-100,-100,0,0,100,0.00,40.00,0,-999,0,0.00
2013-1-26,51,39,35,-100,-100,-100,0,0,100,0.00,40.00,0,-999,0,0.00
2013-1-27,37,32,26,31,-93,-100,80,4,80,0.00,40.00,0,-999,0,0.00
2013-1-28,35,30,23,-100,-100,-100,0,0,100,0.00,40.00,0,-999,0,0.01
2013-1-29,39,35,31,33,-89,-100,91,7,80,0.00,40.00,0,-999,0,0.01
2013-1-30,44,39,35,37,-68,-100,97,22,89,0.00,40.00,0,-999,0,0.01
2013-1-31,49,40,32,40,-92,-100,71,4,71,0.00,40.00,0,-999,0,0.00
2013-2-1,47,36,28,-100,-100,-100,0,0,100,0.00,40.00,0,-999,0,0.00
2013-2-2,50,34,23,35,-89,-100,98,7,59,0.00,40.00,0,-999,0,0.00
2013-2-3,37,31,26,31,-78,-100,99,16,87,0.00,40.00,0,-999,0,0.00
2013-2-4,36,33,31,33,-78,-100,100,15,86,0.00,40.00,0,-999,0,0.00
2013-2-5,47,35,27,33,-83,-100,100,13,98,0.00,40.00,0,-999,0,0.00
2013-2-6,47,35,29,33,-94,-100,100,4,100,0.00,40.00,0,-999,0,0.00
2013-2-7,47,39,32,32,-86,-100,83,7,44,0.00,40.00,0,-999,0,0.00
2013-2-8,44,36,31,33,-72,-100,95,16,56,0.00,40.00,0,-999,0,0.00
2013-2-9,43,35,29,28,-42,-100,86,34,45,0.00,40.00,0,-999,0,0.00
2013-2-10,45,36,27,26,-69,-100,66,12,31,0.00,40.00,0,-999,0,0.00
2013-2-11,44,31,19,26,-68,-100,88,17,42,0.00,40.00,0,-999,0,0.00
2013-2-12,45,34,24,30,-79,-100,95,13,58,0.00,40.00,0,-999,0,0.00
2013-2-13,52,40,30,33,-85,-100,90,9,74,0.00,40.00,0,-999,0,0.00
2013-2-14,48,38,29,32,-74,-100,94,18,81,0.00,40.00,0,-999,0,0.00
2013-2-15,55,39,28,31,-78,-100,84,10,39,0.00,40.00,0,-999,0,0.00
2013-2-16,57,41,25,30,-64,-100,97,21,32,0.00,40.00,0,-999,0,0.00
2013-2-17,45,36,29,34,-89,-100,82,5,46,0.00,40.00,0,-999,0,0.00
2013-2-18,48,36,21,22,-76,-100,89,8,24,0.00,40.00,0,-999,0,0.00
2013-2-19,49,40,32,21,-79,-100,47,8,41,0.00,40.00,0,-999,0,0.00
2013-2-20,44,35,26,32,-72,-100,98,14,43,0.00,40.00,0,-999,0,0.00
2013-2-21,43,32,21,21,-69,-100,90,21,39,0.00,40.00,0,-999,0,0.00
2013-2-22,46,37,29,32,-73,-100,94,14,46,0.00,40.00,0,-999,0,0.00
2013-2-23,40,35,28,30,-78,-100,88,13,67,0.00,40.00,0,-999,0,0.01
2013-2-24,43,34,27,28,-71,-100,90,16,47,0.00,40.00,0,-999,0,0.00
2013-2-25,41,32,25,27,-78,-100,94,16,88,0.00,40.00,0,-999,0,0.00
2013-2-26,42,30,22,20,-94,-100,46,2,46,0.00,40.00,0,-999,0,0.00
2013-2-27,47,34,25,27,-75,-100,92,12,31,0.00,40.00,0,-999,0,0.00
2013-2-28,49,39,30,38,-49,-100,89,30,58,0.00,40.00,0,-999,0,0.00
2013-3-1,61,45,35,47,-31,-100,100,41,44,0.00,40.00,0,-999,0,0.00
2013-3-2,58,45,31,44,-12,-100,100,46,42,0.00,40.00,0,-999,0,0.00
2013-3-3,49,41,25,42,-22,-100,99,39,17,0.00,40.00,0,-999,0,0.00
2013-3-4,49,34,20,26,-54,-100,90,26,21,0.00,40.00,0,-999,0,0.00
2013-3-5,52,39,25,21,-77,-100,81,10,28,0.00,40.00,0,-999,0,0.00
2013-3-6,56,45,33,30,-70,-100,78,12,29,0.00,40.00,0,-999,0,0.00
2013-3-7,52,38,23,32,-63,-100,95,21,30,0.00,40.00,0,-999,0,0.00
2013-3-8,52,39,29,34,-54,-100,88,18,33,0.00,40.00,0,-999,0,0.00
2013-3-9,53,40,30,30,-17,-100,85,34,27,0.00,40.00,0,-999,0,0.00
2013-3-10,55,42,28,29,-14,-100,75,29,18,0.00,40.00,0,-999,0,0.00
2013-3-11,56,44,36,40,25,-100,83,54,40,0.00,40.00,0,-999,0,0.00
2013-3-12,63,45,30,40,29,-100,96,67,30,0.00,40.00,0,-999,0,0.00
2013-3-13,72,54,40,42,30,-100,88,55,20,0.00,40.00,0,-999,0,0.00
2013-3-14,69,50,36,41,27,-100,86,59,24,0.00,40.00,0,-999,0,0.00
2013-3-15,61,49,39,44,31,-100,91,60,28,0.00,40.00,0,-999,0,0.00
2013-3-16,59,45,32,40,31,28,93,63,32,0.00,40.00,0,-999,0,0.00
2013-3-17,47,40,30,32,21,10,79,51,24,0.00,40.00,0,-999,0,0.00
2013-3-18,51,37,22,32,4,-100,89,50,29,0.00,40.00,0,-999,0,0.00
2013-3-19,57,42,21,28,3,-100,84,41,10,0.00,40.00,0,-999,0,0.00
2013-3-20,61,52,42,47,27,-100,97,60,19,0.00,40.00,0,-999,0,0.01
2013-3-21,45,39,30,39,18,-100,89,59,31,0.00,40.00,0,-999,0,0.01
2013-3-22,42,34,25,32,24,13,98,72,33,0.00,40.00,0,-999,0,0.00
2013-3-23,43,31,21,26,18,7,93,65,24,0.00,40.00,0,-999,0,0.00
2013-3-24,48,35,22,27,18,11,85,56,24,0.00,40.00,0,-999,0,0.00
2013-3-25,54,42,27,29,15,-100,90,49,23,0.00,40.00,0,-999,0,0.00
2013-3-26,58,46,37,37,30,23,89,56,40,0.00,40.00,0,-999,0,0.00
2013-3-27,64,50,35,42,16,-100,98,52,29,0.00,40.00,0,-999,0,0.00
2013-3-28,68,53,38,44,36,29,87,57,24,0.00,40.00,0,-999,0,0.00
2013-3-29,66,53,42,47,35,-100,92,63,29,0.00,40.00,0,-999,0,0.00
2013-3-30,67,51,37,44,29,-100,90,60,21,0.00,40.00,0,-999,0,0.00
2013-3-31,77,52,33,45,33,26,92,57,18,0.00,40.00,0,-999,0,0.00
2013-4-1,65,55,42,47,24,-100,93,56,39,0.00,40.00,0,-999,0,0.00
2013-4-2,67,55,42,43,32,-100,86,53,25,0.00,40.00,0,-999,0,0.00
2013-4-3,69,54,37,43,36,33,89,56,29,0.00,40.00,0,-999,0,0.00
2013-4-4,71,55,41,45,27,-100,87,52,26,0.00,40.00,0,-999,0,0.00
2013-4-5,62,51,43,50,41,31,95,70,34,0.00,40.00,0,-999,0,0.00
2013-4-6,55,48,43,49,23,-100,95,69,57,0.00,40.00,0,-999,0,0.00
2013-4-7,56,48,40,48,42,33,98,82,48,0.00,40.00,0,-999,0,0.01
2013-4-8,55,44,33,38,31,24,99,66,33,0.00,40.00,0,-999,0,0.01
2013-4-9,59,46,35,31,17,-100,76,47,23,0.00,40.00,0,-999,0,0.01
2013-4-10,64,50,34,47,-8,-100,91,42,35,0.00,40.00,0,-999,0,0.00
2013-4-11,57,46,35,37,4,-100,87,41,26,0.00,40.00,0,-999,0,0.00
2013-4-12,62,45,30,36,28,18,93,59,18,0.00,40.00,0,-999,0,0.00
2013-4-13,54,48,35,42,24,11,79,42,21,0.00,40.00,0,-999,0,0.00
2013-4-14,48,37,20,32,20,12,91,54,24,0.00,40.00,0,-999,0,0.00
2013-4-15,52,39,23,31,6,-100,93,48,24,0.00,40.00,0,-999,0,0.00
2013-4-16,54,39,28,34,19,-100,95,63,24,0.00,40.00,0,-999,0,0.00
2013-4-17,52,41,25,26,8,-100,87,38,18,0.00,40.00,0,-999,0,0.00
2013-4-18,55,41,23,26,19,11,76,45,25,0.00,40.00,0,-999,0,0.00
2013-4-19,54,47,38,48,39,28,94,75,61,0.00,40.00,0,-999,0,0.00
2013-4-20,60,49,40,45,38,29,99,70,33,0.00,40.00,0,-999,0,0.01
2013-4-21,63,49,32,45,33,28,97,61,28,0.00,40.00,0,-999,0,0.00
2013-4-22,55,46,35,37,27,14,85,53,20,0.00,40.00,0,-999,0,0.00
2013-4-23,57,41,24,33,16,-100,90,52,16,0.00,40.00,0,-999,0,0.00
2013-4-24,64,54,40,26,19,11,57,28,13,0.00,40.00,0,-999,0,0.00
2013-4-25,69,53,31,33,13,-100,79,37,13,0.00,40.00,0,-999,0,0.00
2013-4-26,73,58,38,40,13,-100,76,36,16,0.00,40.00,0,-999,0,0.00
2013-4-27,75,60,46,44,17,-100,71,36,16,0.00,40.00,0,-999,0,0.00
2013-4-28,69,55,44,41,33,28,75,46,24,0.00,40.00,0,-999,0,0.00
2013-4-29,68,55,39,39,14,-100,78,42,24,0.00,40.00,0,-999,0,0.00
2013-4-30,52,44,34,28,18,9,68,38,17,0.00,40.00,0,-999,0,0.00
2013-5-1,58,44,27,29,8,-100,81,40,17,0.00,40.00,0,-999,0,0.00
2013-5-2,71,50,28,29,7,-100,71,33,9,0.00,40.00,0,-999,0,0.00
2013-5-3,72,60,43,29,-5,-100,48,21,15,0.00,40.00,0,-999,0,0.00
2013-5-4,70,56,43,48,32,-100,89,48,29,0.00,40.00,0,-999,0,0.00
2013-5-5,77,57,38,45,34,23,88,50,14,0.00,40.00,0,-999,0,0.00
2013-5-6,77,60,47,46,37,25,67,45,20,0.00,40.00,0,-999,0,0.00
2013-5-7,72,59,53,52,44,37,87,58,32,0.00,40.00,0,-999,0,0.00
2013-5-8,78,61,45,52,22,-100,91,51,26,0.00,40.00,0,-999,0,0.00
2013-5-9,80,62,47,50,21,-100,84,41,21,0.00,40.00,0,-999,0,0.00
2013-5-10,84,68,53,46,34,-100,70,39,15,0.00,40.00,0,-999,0,0.00
2013-5-11,87,70,53,46,36,25,62,35,12,0.00,40.00,0,-999,0,0.00
2013-5-12,91,72,53,47,36,30,58,30,14,0.00,40.00,0,-999,0,0.00
2013-5-13,90,72,54,48,35,20,64,31,8,0.00,40.00,0,-999,0,0.00
2013-5-14,78,64,49,43,18,-100,75,36,23,0.00,40.00,0,-999,0,0.00
2013-5-15,77,63,48,42,18,-100,69,37,18,0.00,40.00,0,-999,0,0.00
2013-5-16,66,60,53,47,12,-100,73,40,32,0.00,40.00,0,-999,0,0.00
2013-5-17,64,57,52,54,41,-100,87,65,42,0.00,40.00,0,-999,0,0.00
2013-5-18,67,55,43,46,39,29,97,60,27,0.00,40.00,0,-999,0,0.00
2013-5-19,65,56,46,41,36,32,79,51,30,0.00,40.00,0,-999,0,0.00
2013-5-20,73,57,38,43,28,-100,92,48,18,0.00,40.00,0,-999,0,0.00
2013-5-21,82,64,44,41,21,-100,67,29,11,0.00,40.00,0,-999,0,0.00
2013-5-22,57,49,38,36,12,-100,60,35,13,0.00,40.00,0,-999,0,0.00
2013-5-23,64,49,29,24,11,-100,61,29,11,0.00,40.00,0,-999,0,0.00
2013-5-24,73,55,34,27,19,-100,59,30,13,0.00,40.00,0,-999,0,0.00
2013-5-25,71,60,48,40,32,26,61,38,20,0.00,40.00,0,-999,0,0.00
2013-5-26,71,56,46,52,38,28,93,54,26,0.00,40.00,0,-999,0,0.00
2013-5-27,67,54,40,53,33,-100,99,69,27,0.00,40.00,0,-999,0,0.00
2013-5-28,62,54,48,51,43,-100,100,76,44,0.00,40.00,0,-999,0,0.01
2013-5-29,66,53,42,54,30,-100,99,68,36,0.00,40.00,0,-999,0,0.00
2013-5-30,65,54,41,47,30,-100,99,59,28,0.00,40.00,0,-999,0,0.00
2013-5-31,68,55,40,41,31,-100,90,50,23,0.00,40.00,0,-999,0,0.00
2013-6-1,80,63,45,40,34,26,78,39,15,0.00,40.00,0,-999,0,0.00
2013-6-2,75,64,47,46,32,-100,80,41,18,0.00,40.00,0,-999,0,0.00
2013-6-3,73,61,42,43,32,-100,85,42,19,0.00,40.00,0,-999,0,0.00
2013-6-4,77,63,45,44,19,-100,78,36,20,0.00,40.00,0,-999,0,0.00
2013-6-5,83,68,46,43,30,-100,72,35,13,0.00,40.00,0,-999,0,0.00
2013-6-6,91,75,55,44,34,-100,57,29,14,0.00,40.00,0,-999,0,0.00
2013-6-7,88,73,56,48,40,32,63,35,14,0.00,40.00,0,-999,0,0.00
2013-6-8,84,70,53,47,34,-100,76,35,12,0.00,40.00,0,-999,0,0.00
2013-6-9,92,74,53,44,38,35,57,30,14,0.00,40.00,0,-999,0,0.00
2013-6-10,86,72,59,46,36,29,50,29,15,0.00,40.00,0,-999,0,0.00
2013-6-11,84,71,55,40,24,-100,44,26,18,0.00,40.00,0,-999,0,0.00
2013-6-12,80,66,50,45,22,-100,66,35,17,0.00,40.00,0,-999,0,0.00
2013-6-13,69,61,52,44,4,-100,62,32,22,0.00,40.00,0,-999,0,0.00
2013-6-14,70,56,38,43,19,-100,95,43,17,0.00,40.00,0,-999,0,0.00
2013-6-15,85,67,41,35,23,-100,68,28,9,0.00,40.00,0,-999,0,0.00
2013-6-16,91,74,52,36,28,22,47,22,9,0.00,40.00,0,-999,0,0.00
2013-6-17,91,77,56,39,24,-100,43,21,10,0.00,40.00,0,-999,0,0.00
2013-6-18,86,72,55,42,1,-100,45,20,11,0.00,40.00,0,-999,0,0.00
2013-6-19,68,58,47,48,20,-100,92,49,28,0.00,40.00,0,-999,0,0.00
2013-6-20,63,50,40,51,29,-100,99,75,39,0.00,40.00,0,-999,0,0.00
2013-6-22,73,65,52,-100,-100,-100,0,0,100,0.00,40.00,0,-999,0,0.00
2013-6-23,85,70,47,-100,-100,-100,0,0,100,0.00,40.00,0,-999,0,0.00
2013-6-24,74,65,56,56,-48,-100,91,23,27,0.00,40.00,0,-999,0,0.00
2013-6-25,70,61,53,58,43,-100,97,76,46,0.00,40.00,0,-999,0,0.00
2013-6-26,86,72,59,62,43,-100,98,56,25,0.00,40.00,0,-999,0,0.00
2013-6-27,95,77,56,62,44,-100,98,48,16,0.00,40.00,0,-999,0,0.00
2013-6-28,100,88,68,49,37,-100,46,22,13,0.00,40.00,0,-999,0,0.00
2013-6-29,102,89,63,57,41,-100,62,26,14,0.00,40.00,0,-999,0,0.00
2013-6-30,103,87,62,61,51,41,81,35,13,0.00,40.00,0,-999,0,0.00
2013-7-1,112,90,72,59,42,-100,59,25,9,0.00,40.00,0,-999,0,0.00
2013-7-2,104,92,75,54,31,-100,44,23,13,0.00,40.00,0,-999,0,0.00
2013-7-3,95,83,72,65,56,44,79,44,20,0.00,40.00,0,-999,0,0.00
2013-7-4,92,77,63,59,44,-100,86,41,14,0.00,40.00,0,-999,0,0.00
2013-7-5,89,74,55,59,40,-100,88,42,17,0.00,40.00,0,-999,0,0.00
2013-7-6,91,70,55,45,38,28,63,36,13,0.00,40.00,0,-999,0,0.00
2013-7-7,95,78,55,48,28,-100,65,25,12,0.00,40.00,0,-999,0,0.00
2013-7-8,92,74,58,44,23,-100,50,26,14,0.00,40.00,0,-999,0,0.00
2013-7-9,97,77,58,45,31,-100,55,27,10,0.00,40.00,0,-999,0,0.00
2013-7-10,99,84,63,36,17,-100,27,15,9,0.00,40.00,0,-999,0,0.00
2013-7-11,86,76,66,44,22,-100,38,25,17,0.00,40.00,0,-999,0,0.00
2013-7-12,94,79,55,53,41,26,71,32,9,0.00,40.00,0,-999,0,0.00
2013-7-13,85,72,55,35,31,27,37,23,14,0.00,40.00,0,-999,0,0.00
2013-7-14,96,75,54,40,32,23,51,24,8,0.00,40.00,0,-999,0,0.00
2013-7-15,100,78,61,37,22,-100,32,18,10,0.00,40.00,0,-999,0,0.00
2013-7-16,99,82,62,51,23,-100,51,26,15,0.00,40.00,0,-999,0,0.00
2013-7-17,95,82,69,58,32,-100,60,28,8,0.00,40.00,0,-999,0,0.00
2013-7-18,97,85,59,43,-8,-100,50,13,8,0.00,40.00,0,-999,0,0.00
2013-7-19,100,80,58,42,26,-100,45,18,7,0.00,40.00,0,-999,0,0.00
2013-7-20,98,80,62,43,13,-100,46,19,9,0.00,40.00,0,-999,0,0.00
2013-7-21,96,78,54,37,26,7,48,20,5,0.00,40.00,0,-999,0,0.00
2013-7-22,96,78,59,26,12,-100,21,11,7,0.00,40.00,0,-999,0,0.00
2013-7-23,98,80,53,31,8,-100,32,13,6,0.00,40.00,0,-999,0,0.00
2013-7-24,96,81,66,38,29,22,25,15,11,0.00,40.00,0,-999,0,0.00
2013-7-25,98,84,67,44,18,-100,40,20,10,0.00,40.00,0,-999,0,0.00
2013-7-26,99,82,63,41,4,-100,36,17,11,0.00,40.00,0,-999,0,0.00
2013-7-27,92,80,67,43,25,-100,30,18,12,0.00,40.00,0,-999,0,0.00
2013-7-28,89,73,55,39,30,23,44,23,11,0.00,40.00,0,-999,0,0.00
2013-7-29,90,72,56,38,19,-100,44,23,10,0.00,40.00,0,-999,0,0.00
2013-7-30,92,78,56,40,20,-100,40,19,10,0.00,40.00,0,-999,0,0.00
2013-7-31,96,79,62,37,23,-100,28,17,11,0.00,40.00,0,-999,0,0.00
2013-8-1,89,77,64,44,32,-100,45,27,15,0.00,40.00,0,-999,0,0.00
2013-8-2,80,67,49,51,35,-100,85,42,17,0.00,40.00,0,-999,0,0.00
2013-8-3,86,69,50,44,33,25,79,31,12,0.00,40.00,0,-999,0,0.00
2013-8-4,94,76,55,47,33,27,62,24,11,0.00,40.00,0,-999,0,0.00
2013-8-5,94,76,58,37,26,-100,44,21,11,0.00,40.00,0,-999,0,0.00
2013-8-6,92,79,60,47,21,-100,56,24,10,0.00,40.00,0,-999,0,0.00
2013-8-7,97,80,61,34,7,-100,26,15,10,0.00,40.00,0,-999,0,0.00
2013-8-8,93,80,66,43,11,-100,39,18,13,0.00,40.00,0,-999,0,0.00
2013-8-9,95,79,60,54,35,-100,73,33,8,0.00,40.00,0,-999,0,0.00
2013-8-10,95,79,55,49,38,25,66,28,9,0.00,40.00,0,-999,0,0.00
2013-8-11,89,76,67,50,34,-100,53,31,17,0.00,40.00,0,-999,0,0.00
2013-8-12,88,75,59,50,15,-100,66,26,15,0.00,40.00,0,-999,0,0.00
2013-8-13,94,79,63,51,39,32,58,28,13,0.00,40.00,0,-999,0,0.00
2013-8-14,98,76,57,42,33,26,42,25,8,0.00,40.00,0,-999,0,0.00
2013-8-15,99,79,56,32,27,22,27,16,9,0.00,40.00,0,-999,0,0.00
2013-8-16,95,82,57,47,36,27,55,23,9,0.00,40.00,0,-999,0,0.00
2013-8-17,93,78,60,48,37,29,44,24,12,0.00,40.00,0,-999,0,0.00
2013-8-18,94,83,66,49,41,32,34,24,16,0.00,40.00,0,-999,0,0.00
2013-8-19,91,76,63,46,38,33,54,28,13,0.00,40.00,0,-999,0,0.00
2013-8-20,93,78,61,48,39,32,56,29,14,0.00,40.00,0,-999,0,0.00
2013-8-21,91,71,55,45,40,36,52,34,17,0.00,40.00,0,-999,0,0.00
2013-8-22,92,74,61,60,47,38,54,41,15,0.00,40.00,0,-999,0,0.00
2013-8-23,82,71,59,63,51,36,94,55,21,0.00,40.00,0,-999,0,0.00
2013-8-24,89,74,56,54,32,-100,55,33,16,0.00,40.00,0,-999,0,0.00
2013-8-25,89,77,61,53,43,35,53,32,15,0.00,40.00,0,-999,0,0.00
2013-8-26,89,70,55,52,41,33,73,40,14,0.00,40.00,0,-999,0,0.00
2013-8-27,88,70,57,48,43,39,59,40,22,0.00,40.00,0,-999,0,0.00
2013-8-28,91,86,82,52,46,42,35,25,18,0.00,40.00,0,-999,0,0.00
2013-8-29,96,80,67,52,45,33,52,32,14,0.00,40.00,0,-999,0,0.00
2013-8-30,89,75,57,45,32,-100,56,29,13,0.00,40.00,0,-999,0,0.00
2013-8-31,97,74,56,39,34,28,47,27,10,0.00,40.00,0,-999,0,0.00
2013-9-1,94,77,61,37,31,25,31,20,11,0.00,40.00,0,-999,0,0.00
2013-9-2,89,75,65,60,46,36,81,38,22,0.00,40.00,0,-999,0,0.00
2013-9-3,82,68,63,65,61,58,96,80,44,0.00,40.00,0,-999,0,0.00
2013-9-4,91,74,62,67,59,48,95,64,23,0.00,40.00,0,-999,0,0.00
2013-9-5,86,71,62,68,58,49,95,67,28,0.00,40.00,0,-999,0,0.00
2013-9-6,77,67,56,62,49,37,99,61,25,0.00,40.00,0,-999,0,0.00
2013-9-8,81,68,52,50,45,40,84,48,24,0.00,40.00,0,-999,0,0.00
2013-9-9,81,66,52,51,38,-100,85,49,24,0.00,40.00,0,-999,0,0.00
2013-9-10,87,71,53,53,45,40,77,46,19,0.00,40.00,0,-999,0,0.00
2013-9-11,90,79,57,50,43,35,70,30,17,0.00,40.00,0,-999,0,0.00
2013-9-12,87,70,63,62,43,-100,91,59,34,0.00,40.00,0,-999,0,0.00
2013-9-13,77,66,59,66,58,49,99,78,46,0.00,40.00,0,-999,0,0.01
2013-9-14,82,68,57,60,55,46,98,66,31,0.00,40.00,0,-999,0,0.00
2013-9-15,86,73,56,58,40,-100,84,45,23,0.00,40.00,0,-999,0,0.00
2013-9-16,86,71,58,59,45,30,86,46,16,0.00,40.00,0,-999,0,0.00
2013-9-17,75,60,54,51,46,39,85,61,28,0.00,40.00,0,-999,0,0.00
2013-9-18,53,51,45,44,40,32,75,68,46,0.00,40.00,0,-999,0,0.00
2013-9-19,72,56,41,41,31,20,82,47,15,0.00,40.00,0,-999,0,0.00
2013-9-20,85,68,43,39,17,-100,71,30,10,0.00,40.00,0,-999,0,0.00
2013-9-21,74,62,54,41,34,26,56,37,17,0.00,40.00,0,-999,0,0.00
2013-9-22,65,57,48,46,34,-100,76,54,33,0.00,40.00,0,-999,0,0.00
2013-9-23,69,57,48,45,39,32,87,56,26,0.00,40.00,0,-999,0,0.00
2013-9-24,61,54,49,54,43,37,93,67,43,0.00,40.00,0,-999,0,0.00
2013-9-25,52,49,45,47,43,38,98,82,59,0.00,40.00,0,-999,0,0.01
2013-9-26,53,47,44,48,44,42,99,91,72,0.00,40.00,0,-999,0,0.01
2013-9-27,60,48,39,44,30,-100,99,75,41,0.00,40.00,0,-999,0,0.01
2013-9-28,68,56,48,46,28,-100,86,56,26,0.00,40.00,0,-999,0,0.00
2013-9-29,65,61,50,52,42,34,99,54,32,0.00,40.00,0,-999,0,0.00
2013-9-30,63,56,47,50,44,36,89,65,40,0.00,40.00,0,-999,0,0.00
2013-10-1,61,53,47,38,36,35,65,56,39,0.00,40.00,0,-999,0,0.00
2013-10-2,58,46,36,38,35,27,94,67,33,0.00,40.00,0,-999,0,0.00
2013-10-3,54,47,41,38,28,-100,90,58,31,0.00,40.00,0,-999,0,0.00
2013-10-4,59,47,34,33,-16,-100,91,39,26,0.00,40.00,0,-999,0,0.00
2013-10-5,65,49,32,33,28,22,95,53,20,0.00,40.00,0,-999,0,0.00
2013-10-6,75,52,33,37,19,-100,89,48,12,0.00,40.00,0,-999,0,0.00
2013-10-7,70,54,36,34,29,22,78,44,17,0.00,40.00,0,-999,0,0.00
2013-10-8,55,46,34,36,34,30,96,65,39,0.00,40.00,0,-999,0,0.00
2013-10-9,58,44,35,39,36,32,99,80,38,0.00,40.00,0,-999,0,0.00
2013-10-10,53,46,37,38,36,35,95,71,49,0.00,40.00,0,-999,0,0.00
2013-10-11,57,46,33,39,31,25,96,59,32,0.00,40.00,0,-999,0,0.00
2013-10-12,63,49,38,37,32,25,80,55,23,0.00,40.00,0,-999,0,0.00
2013-10-13,60,50,37,42,37,32,98,66,39,0.00,40.00,0,-999,0,0.00
2013-10-21,43,42,42,32,32,31,67,65,61,0.00,40.00,0,-999,0,0.00
2013-10-22,65,47,35,34,31,25,84,57,29,0.00,40.00,0,-999,0,0.00
2013-10-23,36,36,35,32,32,31,85,84,84,0.00,40.00,0,-999,0,0.00
2013-10-24,70,63,54,31,28,26,34,28,22,0.00,40.00,0,-999,0,0.00
2013-10-25,48,40,36,39,34,32,89,80,59,0.00,40.00,0,-999,0,0.00
2013-10-26,69,48,35,37,33,31,88,66,24,0.00,40.00,0,-999,0,0.00
2013-10-27,57,52,48,35,34,34,58,51,44,0.00,40.00,0,-999,0,0.00
2013-10-30,48,45,40,37,36,34,91,71,58,0.00,40.00,0,-999,0,0.00
2013-10-31,57,47,33,44,39,32,98,76,51,0.00,40.00,0,-999,0,0.00
2013-11-1,58,47,38,48,40,36,99,77,53,0.00,40.00,0,-999,0,0.00
2013-11-2,59,53,39,40,36,34,97,57,40,0.00,40.00,0,-999,0,0.00
2013-11-3,37,33,30,31,29,27,94,85,72,0.00,40.00,0,-999,0,0.00
2013-11-4,45,34,25,32,1,-100,94,59,40,0.00,40.00,0,-999,0,0.00
2013-11-5,44,37,21,39,31,19,97,82,39,0.00,40.00,0,-999,0,0.00
2013-11-12,53,47,39,40,37,34,87,69,49,0.00,40.00,0,-999,0,0.00
2013-11-13,56,50,44,42,39,36,90,69,48,0.00,40.00,0,-999,0,0.00
2013-11-14,53,42,34,36,34,32,94,75,44,0.00,40.00,0,-999,0,0.00
2013-11-15,46,45,44,30,28,26,52,51,50,0.00,40.00,0,-999,0,0.00
2013-11-16,35,35,34,35,34,31,99,96,90,0.00,40.00,0,-999,0,0.00
2013-11-17,51,51,51,27,27,27,39,39,39,0.00,40.00,0,-999,0,0.00
2013-11-18,46,36,29,40,34,29,96,90,67,0.00,40.00,0,-999,0,0.00
2013-11-19,50,45,40,45,42,37,97,90,74,0.00,40.00,0,-999,0,0.01
2013-11-20,46,41,32,46,37,22,99,86,67,0.00,40.00,0,-999,0,0.02
2013-11-21,41,35,28,22,8,-100,68,48,45,0.00,40.00,0,-999,0,0.00
2013-11-22,43,29,23,25,23,21,95,79,43,0.00,40.00,0,-999,0,0.00
2013-11-23,42,31,20,32,17,-100,96,75,53,0.00,40.00,0,-999,0,0.00
2013-11-24,43,31,19,32,26,17,97,82,52,0.00,40.00,0,-999,0,0.00
2013-11-25,24,24,23,23,22,22,96,96,95,0.00,40.00,0,-999,0,0.00
2013-11-26,55,35,26,31,28,25,96,79,31,0.00,40.00,0,-999,0,0.00
2013-11-27,47,35,26,35,30,25,96,82,50,0.00,40.00,0,-999,0,0.00
2013-11-28,50,36,28,38,20,-100,98,76,49,0.00,40.00,0,-999,0,0.00
2013-11-29,53,37,26,37,5,-100,97,62,45,0.00,40.00,0,-999,0,0.00
2013-11-30,44,40,34,37,27,-100,97,78,70,0.00,40.00,0,-999,0,0.00
2013-12-1,47,42,37,44,-16,-100,97,57,90,0.00,40.00,0,-999,0,0.00
2013-12-2,50,44,34,39,37,32,91,76,64,0.00,40.00,0,-999,0,0.01
2013-12-3,35,30,25,27,24,22,90,79,59,0.00,40.00,0,-999,0,0.00
2013-12-4,26,22,20,21,16,13,88,78,64,0.00,40.00,0,-999,0,0.00
2013-12-9,19,11,-2,11,4,-7,87,75,55,0.00,40.00,0,-999,0,0.00
2013-12-10,17,13,8,12,-1,-100,87,75,78,0.00,40.00,0,-999,0,0.00
2013-12-11,28,20,11,17,14,9,90,77,61,0.00,40.00,0,-999,0,0.00
2013-12-12,14,11,8,11,8,5,89,89,88,0.00,40.00,0,-999,0,0.00
2013-12-13,29,25,20,25,21,18,91,84,77,0.00,40.00,0,-999,0,0.00
2013-12-14,39,33,27,31,28,24,89,81,73,0.00,40.00,0,-999,0,0.00
2013-12-15,38,30,23,28,26,23,97,82,66,0.00,40.00,0,-999,0,0.00
2013-12-16,29,23,14,29,22,12,98,96,91,0.00,40.00,0,-999,0,0.00
2013-12-17,24,18,12,24,17,10,98,94,90,0.00,40.00,0,-999,0,0.00
2013-12-18,22,22,21,21,20,20,96,96,95,0.00,40.00,0,-999,0,0.00
2013-12-19,33,24,16,23,20,13,96,82,61,0.00,40.00,0,-999,0,0.00
2013-12-20,33,15,8,18,10,6,90,80,52,0.00,40.00,0,-999,0,0.00
2013-12-21,30,26,22,29,26,21,98,97,93,0.00,40.00,0,-999,0,0.01
2013-12-22,40,35,26,34,30,25,97,86,73,0.00,40.00,0,-999,0,0.01
2013-12-23,41,38,36,36,36,35,98,91,84,0.00,40.00,0,-999,0,0.00
2013-12-24,41,31,26,31,28,25,98,90,68,0.00,40.00,0,-999,0,0.00
2013-12-25,43,30,21,29,24,17,87,78,59,0.00,40.00,0,-999,0,0.00
2013-12-26,41,27,18,28,22,16,97,83,58,0.00,40.00,0,-999,0,0.00
2013-12-27,22,20,18,21,19,17,95,94,93,0.00,40.00,0,-999,0,0.00
2013-12-28,34,34,34,28,28,28,78,78,78,0.00,40.00,0,-999,0,0.00
2013-12-29,18,18,18,17,17,17,95,94,93,0.00,40.00,0,-999,0,0.00
2013-12-30,31,27,22,30,9,-100,97,83,96,0.00,40.00,0,-999,0,0.00
2013-12-31,36,31,26,33,29,26,98,93,87,0.00,40.00,0,-999,0,0.00
2014-1-1,45,32,24,33,29,23,99,90,62,0.00,40.00,0,-999,0,0.00
2014-1-2,44,30,21,31,26,20,97,88,60,0.00,40.00,0,-999,0,0.00